sensor_id;sensor_type;location;lat;lon;timestamp;temperature;humidity
21104;DHT22;10710;53.398;-1.514;2022-12-18T00:01:17;2.40;99.90
21104;DHT22;10710;53.398;-1.514;2022-12-18T00:03:43;2.30;99.90
21104;DHT22;10710;53.398;-1.514;2022-12-18T00:06:09;2.30;99.90
21104;DHT22;10710;53.398;-1.514;2022-12-18T00:08:35;2.40;99.90
21104;DHT22;10710;53.398;-1.514;2022-12-18T00:11:06;2.40;99.90
21104;DHT22;10710;53.398;-1.514;2022-12-18T00:13:32;2.40;99.90
21104;DHT22;10710;53.398;-1.514;2022-12-18T00:16:05;2.40;99.90
21104;DHT22;10710;53.398;-1.514;2022-12-18T00:18:32;2.50;99.90
21104;DHT22;10710;53.398;-1.514;2022-12-18T00:21:00;2.40;99.90
21104;DHT22;10710;53.398;-1.514;2022-12-18T00:23:32;2.50;99.90
21104;DHT22;10710;53.398;-1.514;2022-12-18T00:26:00;2.50;99.90
21104;DHT22;10710;53.398;-1.514;2022-12-18T00:28:29;2.50;99.90
21104;DHT22;10710;53.398;-1.514;2022-12-18T00:31:13;2.40;99.90
21104;DHT22;10710;53.398;-1.514;2022-12-18T00:33:39;2.40;99.90
21104;DHT22;10710;53.398;-1.514;2022-12-18T00:36:07;2.30;99.90
21104;DHT22;10710;53.398;-1.514;2022-12-18T00:38:34;2.30;99.90
21104;DHT22;10710;53.398;-1.514;2022-12-18T00:41:01;2.30;99.90
21104;DHT22;10710;53.398;-1.514;2022-12-18T00:43:26;2.20;99.90
21104;DHT22;10710;53.398;-1.514;2022-12-18T00:45:53;2.20;99.90
21104;DHT22;10710;53.398;-1.514;2022-12-18T00:48:19;2.10;99.90
21104;DHT22;10710;53.398;-1.514;2022-12-18T00:50:44;2.10;99.90
21104;DHT22;10710;53.398;-1.514;2022-12-18T00:53:11;2.00;99.90
21104;DHT22;10710;53.398;-1.514;2022-12-18T00:55:40;2.00;99.90
21104;DHT22;10710;53.398;-1.514;2022-12-18T00:58:07;2.00;99.90
21104;DHT22;10710;53.398;-1.514;2022-12-18T01:00:34;2.00;99.90
21104;DHT22;10710;53.398;-1.514;2022-12-18T01:02:59;2.00;99.90
21104;DHT22;10710;53.398;-1.514;2022-12-18T01:05:27;2.00;99.90
21104;DHT22;10710;53.398;-1.514;2022-12-18T01:07:53;2.00;99.90
21104;DHT22;10710;53.398;-1.514;2022-12-18T01:10:20;2.00;99.90
21104;DHT22;10710;53.398;-1.514;2022-12-18T01:12:46;2.00;99.90
21104;DHT22;10710;53.398;-1.514;2022-12-18T01:15:13;2.10;99.90
21104;DHT22;10710;53.398;-1.514;2022-12-18T01:17:39;2.00;99.90
21104;DHT22;10710;53.398;-1.514;2022-12-18T01:20:06;2.00;99.90
21104;DHT22;10710;53.398;-1.514;2022-12-18T01:22:35;2.00;99.90
21104;DHT22;10710;53.398;-1.514;2022-12-18T01:25:01;2.00;99.90
21104;DHT22;10710;53.398;-1.514;2022-12-18T01:27:27;1.90;99.90
21104;DHT22;10710;53.398;-1.514;2022-12-18T01:29:54;1.90;99.90
21104;DHT22;10710;53.398;-1.514;2022-12-18T01:32:19;1.90;99.90
21104;DHT22;10710;53.398;-1.514;2022-12-18T01:34:46;1.80;99.90
21104;DHT22;10710;53.398;-1.514;2022-12-18T01:37:14;1.90;99.90
21104;DHT22;10710;53.398;-1.514;2022-12-18T01:39:40;1.80;99.90
21104;DHT22;10710;53.398;-1.514;2022-12-18T01:42:12;1.80;99.90
21104;DHT22;10710;53.398;-1.514;2022-12-18T01:52:43;1.70;99.90
21104;DHT22;10710;53.398;-1.514;2022-12-18T01:55:11;1.60;99.90
21104;DHT22;10710;53.398;-1.514;2022-12-18T01:57:39;1.60;99.90
21104;DHT22;10710;53.398;-1.514;2022-12-18T02:00:15;1.60;99.90
21104;DHT22;10710;53.398;-1.514;2022-12-18T02:02:43;1.70;99.90
21104;DHT22;10710;53.398;-1.514;2022-12-18T02:05:11;1.60;99.90
21104;DHT22;10710;53.398;-1.514;2022-12-18T02:07:54;1.60;99.90
21104;DHT22;10710;53.398;-1.514;2022-12-18T02:10:46;1.50;99.90
21104;DHT22;10710;53.398;-1.514;2022-12-18T02:18:36;1.40;99.90
21104;DHT22;10710;53.398;-1.514;2022-12-18T02:21:26;1.40;99.90
21104;DHT22;10710;53.398;-1.514;2022-12-18T02:29:13;1.40;99.90
21104;DHT22;10710;53.398;-1.514;2022-12-18T02:31:47;1.40;99.90
21104;DHT22;10710;53.398;-1.514;2022-12-18T02:34:16;1.40;99.90
21104;DHT22;10710;53.398;-1.514;2022-12-18T02:36:44;1.50;99.90
21104;DHT22;10710;53.398;-1.514;2022-12-18T02:39:12;1.50;99.90
21104;DHT22;10710;53.398;-1.514;2022-12-18T02:41:39;1.50;99.90
21104;DHT22;10710;53.398;-1.514;2022-12-18T02:44:11;1.50;99.90
21104;DHT22;10710;53.398;-1.514;2022-12-18T02:46:50;1.50;99.90
21104;DHT22;10710;53.398;-1.514;2022-12-18T02:49:30;1.50;99.90
21104;DHT22;10710;53.398;-1.514;2022-12-18T02:57:59;1.40;99.90
21104;DHT22;10710;53.398;-1.514;2022-12-18T03:03:39;1.30;99.90
21104;DHT22;10710;53.398;-1.514;2022-12-18T03:06:12;1.20;99.90
21104;DHT22;10710;53.398;-1.514;2022-12-18T03:08:48;1.20;99.90
21104;DHT22;10710;53.398;-1.514;2022-12-18T03:11:16;1.20;99.90
21104;DHT22;10710;53.398;-1.514;2022-12-18T03:14:04;1.20;99.90
21104;DHT22;10710;53.398;-1.514;2022-12-18T03:16:34;1.10;99.90
21104;DHT22;10710;53.398;-1.514;2022-12-18T03:19:11;1.20;99.90
21104;DHT22;10710;53.398;-1.514;2022-12-18T03:21:47;1.20;99.90
21104;DHT22;10710;53.398;-1.514;2022-12-18T03:24:16;1.20;99.90
21104;DHT22;10710;53.398;-1.514;2022-12-18T03:26:46;1.20;99.90
21104;DHT22;10710;53.398;-1.514;2022-12-18T03:29:18;1.20;99.90
21104;DHT22;10710;53.398;-1.514;2022-12-18T03:31:49;1.20;99.90
21104;DHT22;10710;53.398;-1.514;2022-12-18T03:34:22;1.20;99.90
21104;DHT22;10710;53.398;-1.514;2022-12-18T03:36:49;1.10;99.90
21104;DHT22;10710;53.398;-1.514;2022-12-18T03:39:15;1.20;99.90
21104;DHT22;10710;53.398;-1.514;2022-12-18T03:50:24;1.10;99.90
21104;DHT22;10710;53.398;-1.514;2022-12-18T03:53:23;1.10;99.90
21104;DHT22;10710;53.398;-1.514;2022-12-18T03:55:52;1.10;99.90
21104;DHT22;10710;53.398;-1.514;2022-12-18T03:58:23;1.00;99.90
21104;DHT22;10710;53.398;-1.514;2022-12-18T04:00:56;1.10;99.90
21104;DHT22;10710;53.398;-1.514;2022-12-18T04:03:26;1.10;99.90
21104;DHT22;10710;53.398;-1.514;2022-12-18T04:06:00;1.10;99.90
21104;DHT22;10710;53.398;-1.514;2022-12-18T04:08:27;1.00;99.90
21104;DHT22;10710;53.398;-1.514;2022-12-18T04:10:58;1.00;99.90
21104;DHT22;10710;53.398;-1.514;2022-12-18T04:13:29;1.00;99.90
21104;DHT22;10710;53.398;-1.514;2022-12-18T04:16:06;1.00;99.90
21104;DHT22;10710;53.398;-1.514;2022-12-18T04:18:42;0.90;99.90
21104;DHT22;10710;53.398;-1.514;2022-12-18T04:21:19;1.00;99.90
21104;DHT22;10710;53.398;-1.514;2022-12-18T04:23:49;0.90;99.90
21104;DHT22;10710;53.398;-1.514;2022-12-18T04:26:21;1.00;99.90
21104;DHT22;10710;53.398;-1.514;2022-12-18T04:28:50;1.00;99.90
21104;DHT22;10710;53.398;-1.514;2022-12-18T04:31:25;1.10;99.90
21104;DHT22;10710;53.398;-1.514;2022-12-18T04:34:06;1.20;99.90
21104;DHT22;10710;53.398;-1.514;2022-12-18T04:36:45;1.10;99.90
21104;DHT22;10710;53.398;-1.514;2022-12-18T04:39:17;1.10;99.90
21104;DHT22;10710;53.398;-1.514;2022-12-18T04:41:50;1.10;99.90
21104;DHT22;10710;53.398;-1.514;2022-12-18T04:44:22;1.00;99.90
21104;DHT22;10710;53.398;-1.514;2022-12-18T04:46:54;1.00;99.90
21104;DHT22;10710;53.398;-1.514;2022-12-18T04:49:30;1.00;99.90
21104;DHT22;10710;53.398;-1.514;2022-12-18T04:52:17;1.00;99.90
21104;DHT22;10710;53.398;-1.514;2022-12-18T04:54:57;1.00;99.90
21104;DHT22;10710;53.398;-1.514;2022-12-18T04:57:28;1.10;99.90
21104;DHT22;10710;53.398;-1.514;2022-12-18T05:00:03;1.10;99.90
21104;DHT22;10710;53.398;-1.514;2022-12-18T05:02:29;1.10;99.90
21104;DHT22;10710;53.398;-1.514;2022-12-18T05:04:55;1.10;99.90
21104;DHT22;10710;53.398;-1.514;2022-12-18T05:07:21;1.00;99.90
21104;DHT22;10710;53.398;-1.514;2022-12-18T05:09:46;1.10;99.90
21104;DHT22;10710;53.398;-1.514;2022-12-18T05:12:12;1.00;99.90
21104;DHT22;10710;53.398;-1.514;2022-12-18T05:14:38;1.00;99.90
21104;DHT22;10710;53.398;-1.514;2022-12-18T05:17:04;1.10;99.90
21104;DHT22;10710;53.398;-1.514;2022-12-18T05:19:29;1.20;99.90
21104;DHT22;10710;53.398;-1.514;2022-12-18T05:21:55;1.20;99.90
21104;DHT22;10710;53.398;-1.514;2022-12-18T05:24:21;1.30;99.90
21104;DHT22;10710;53.398;-1.514;2022-12-18T05:26:47;1.40;99.90
21104;DHT22;10710;53.398;-1.514;2022-12-18T05:29:12;1.50;99.90
21104;DHT22;10710;53.398;-1.514;2022-12-18T05:31:39;1.60;99.90
21104;DHT22;10710;53.398;-1.514;2022-12-18T05:34:05;1.70;99.90
21104;DHT22;10710;53.398;-1.514;2022-12-18T05:36:31;1.60;99.90
21104;DHT22;10710;53.398;-1.514;2022-12-18T05:38:57;1.70;99.90
21104;DHT22;10710;53.398;-1.514;2022-12-18T05:41:24;1.60;99.90
21104;DHT22;10710;53.398;-1.514;2022-12-18T05:43:49;1.70;99.90
21104;DHT22;10710;53.398;-1.514;2022-12-18T05:46:17;1.70;99.90
21104;DHT22;10710;53.398;-1.514;2022-12-18T05:48:44;1.70;99.90
21104;DHT22;10710;53.398;-1.514;2022-12-18T05:51:15;1.70;99.90
21104;DHT22;10710;53.398;-1.514;2022-12-18T05:53:43;1.70;99.90
21104;DHT22;10710;53.398;-1.514;2022-12-18T05:56:12;1.80;99.90
21104;DHT22;10710;53.398;-1.514;2022-12-18T05:58:38;1.80;99.90
21104;DHT22;10710;53.398;-1.514;2022-12-18T06:01:08;1.80;99.90
21104;DHT22;10710;53.398;-1.514;2022-12-18T06:03:35;1.90;99.90
21104;DHT22;10710;53.398;-1.514;2022-12-18T06:06:01;2.00;99.90
21104;DHT22;10710;53.398;-1.514;2022-12-18T06:08:27;2.00;99.90
21104;DHT22;10710;53.398;-1.514;2022-12-18T06:10:53;2.00;99.90
21104;DHT22;10710;53.398;-1.514;2022-12-18T06:13:19;2.10;99.90
21104;DHT22;10710;53.398;-1.514;2022-12-18T06:15:45;2.00;99.90
21104;DHT22;10710;53.398;-1.514;2022-12-18T06:18:11;1.90;99.90
21104;DHT22;10710;53.398;-1.514;2022-12-18T06:20:38;2.00;99.90
21104;DHT22;10710;53.398;-1.514;2022-12-18T06:23:05;2.00;99.90
21104;DHT22;10710;53.398;-1.514;2022-12-18T06:25:32;2.00;99.90
21104;DHT22;10710;53.398;-1.514;2022-12-18T06:27:58;2.00;99.90
21104;DHT22;10710;53.398;-1.514;2022-12-18T06:30:25;2.00;99.90
21104;DHT22;10710;53.398;-1.514;2022-12-18T06:32:51;2.10;99.90
21104;DHT22;10710;53.398;-1.514;2022-12-18T06:35:17;2.20;99.90
21104;DHT22;10710;53.398;-1.514;2022-12-18T06:37:42;2.20;99.90
21104;DHT22;10710;53.398;-1.514;2022-12-18T06:40:08;2.20;99.90
21104;DHT22;10710;53.398;-1.514;2022-12-18T06:42:34;2.20;99.90
21104;DHT22;10710;53.398;-1.514;2022-12-18T06:45:00;2.20;99.90
21104;DHT22;10710;53.398;-1.514;2022-12-18T06:47:26;2.20;99.90
21104;DHT22;10710;53.398;-1.514;2022-12-18T06:49:51;2.30;99.90
21104;DHT22;10710;53.398;-1.514;2022-12-18T06:52:17;2.30;99.90
21104;DHT22;10710;53.398;-1.514;2022-12-18T06:54:44;2.40;99.90
21104;DHT22;10710;53.398;-1.514;2022-12-18T06:57:09;2.40;99.90
21104;DHT22;10710;53.398;-1.514;2022-12-18T06:59:35;2.40;99.90
21104;DHT22;10710;53.398;-1.514;2022-12-18T07:02:01;2.40;99.90
21104;DHT22;10710;53.398;-1.514;2022-12-18T07:04:30;2.40;99.90
21104;DHT22;10710;53.398;-1.514;2022-12-18T07:06:57;2.40;99.90
21104;DHT22;10710;53.398;-1.514;2022-12-18T07:09:23;2.40;99.90
21104;DHT22;10710;53.398;-1.514;2022-12-18T07:11:49;2.30;99.90
21104;DHT22;10710;53.398;-1.514;2022-12-18T07:14:14;2.30;99.90
21104;DHT22;10710;53.398;-1.514;2022-12-18T07:16:40;2.30;99.90
21104;DHT22;10710;53.398;-1.514;2022-12-18T07:19:06;2.30;99.90
21104;DHT22;10710;53.398;-1.514;2022-12-18T07:21:32;2.30;99.90
21104;DHT22;10710;53.398;-1.514;2022-12-18T07:23:57;2.20;99.90
21104;DHT22;10710;53.398;-1.514;2022-12-18T07:26:23;2.20;99.90
21104;DHT22;10710;53.398;-1.514;2022-12-18T07:28:50;2.20;99.90
21104;DHT22;10710;53.398;-1.514;2022-12-18T07:31:21;2.10;99.90
21104;DHT22;10710;53.398;-1.514;2022-12-18T07:33:47;2.20;99.90
21104;DHT22;10710;53.398;-1.514;2022-12-18T07:36:14;2.10;99.90
21104;DHT22;10710;53.398;-1.514;2022-12-18T07:38:40;2.20;99.90
21104;DHT22;10710;53.398;-1.514;2022-12-18T07:41:11;2.30;99.90
21104;DHT22;10710;53.398;-1.514;2022-12-18T07:43:37;2.30;99.90
21104;DHT22;10710;53.398;-1.514;2022-12-18T07:46:04;2.20;99.90
21104;DHT22;10710;53.398;-1.514;2022-12-18T07:48:30;2.20;99.90
21104;DHT22;10710;53.398;-1.514;2022-12-18T07:51:00;2.20;99.90
21104;DHT22;10710;53.398;-1.514;2022-12-18T07:53:27;2.10;99.90
21104;DHT22;10710;53.398;-1.514;2022-12-18T07:56:01;2.00;99.90
21104;DHT22;10710;53.398;-1.514;2022-12-18T07:58:28;2.10;99.90
21104;DHT22;10710;53.398;-1.514;2022-12-18T08:00:54;1.90;99.90
21104;DHT22;10710;53.398;-1.514;2022-12-18T08:03:27;2.00;99.90
21104;DHT22;10710;53.398;-1.514;2022-12-18T08:05:58;1.90;99.90
21104;DHT22;10710;53.398;-1.514;2022-12-18T08:08:24;2.00;99.90
21104;DHT22;10710;53.398;-1.514;2022-12-18T08:10:50;2.10;99.90
21104;DHT22;10710;53.398;-1.514;2022-12-18T08:13:15;2.10;99.90
21104;DHT22;10710;53.398;-1.514;2022-12-18T08:15:42;2.00;99.90
21104;DHT22;10710;53.398;-1.514;2022-12-18T08:18:07;1.80;99.90
21104;DHT22;10710;53.398;-1.514;2022-12-18T08:20:33;1.80;99.90
21104;DHT22;10710;53.398;-1.514;2022-12-18T08:22:59;1.80;99.90
21104;DHT22;10710;53.398;-1.514;2022-12-18T08:25:25;1.90;99.90
21104;DHT22;10710;53.398;-1.514;2022-12-18T08:27:51;2.00;99.90
21104;DHT22;10710;53.398;-1.514;2022-12-18T08:30:17;2.00;99.90
21104;DHT22;10710;53.398;-1.514;2022-12-18T08:32:42;1.90;99.90
21104;DHT22;10710;53.398;-1.514;2022-12-18T08:35:08;1.90;99.90
21104;DHT22;10710;53.398;-1.514;2022-12-18T08:37:34;1.80;99.90
21104;DHT22;10710;53.398;-1.514;2022-12-18T08:40:00;1.90;99.90
21104;DHT22;10710;53.398;-1.514;2022-12-18T08:42:26;1.80;99.90
21104;DHT22;10710;53.398;-1.514;2022-12-18T08:45:10;1.90;99.90
21104;DHT22;10710;53.398;-1.514;2022-12-18T08:47:36;1.90;99.90
21104;DHT22;10710;53.398;-1.514;2022-12-18T08:50:03;1.90;99.90
21104;DHT22;10710;53.398;-1.514;2022-12-18T08:52:31;1.90;99.90
21104;DHT22;10710;53.398;-1.514;2022-12-18T08:54:57;1.90;99.90
21104;DHT22;10710;53.398;-1.514;2022-12-18T08:57:23;1.90;99.90
21104;DHT22;10710;53.398;-1.514;2022-12-18T08:59:49;2.00;99.90
21104;DHT22;10710;53.398;-1.514;2022-12-18T09:02:15;2.00;99.90
21104;DHT22;10710;53.398;-1.514;2022-12-18T09:04:40;2.00;99.90
21104;DHT22;10710;53.398;-1.514;2022-12-18T09:07:06;2.10;99.90
21104;DHT22;10710;53.398;-1.514;2022-12-18T09:09:32;2.00;99.90
21104;DHT22;10710;53.398;-1.514;2022-12-18T09:11:58;2.00;99.90
21104;DHT22;10710;53.398;-1.514;2022-12-18T09:14:24;1.90;99.90
21104;DHT22;10710;53.398;-1.514;2022-12-18T09:16:50;1.90;99.90
21104;DHT22;10710;53.398;-1.514;2022-12-18T09:19:15;2.00;99.90
21104;DHT22;10710;53.398;-1.514;2022-12-18T09:21:41;2.10;99.90
21104;DHT22;10710;53.398;-1.514;2022-12-18T09:24:14;2.10;99.90
21104;DHT22;10710;53.398;-1.514;2022-12-18T09:26:41;2.10;99.90
21104;DHT22;10710;53.398;-1.514;2022-12-18T09:29:07;2.10;99.90
21104;DHT22;10710;53.398;-1.514;2022-12-18T09:31:36;2.10;99.90
21104;DHT22;10710;53.398;-1.514;2022-12-18T09:34:07;2.00;99.90
21104;DHT22;10710;53.398;-1.514;2022-12-18T09:36:32;2.00;99.90
21104;DHT22;10710;53.398;-1.514;2022-12-18T09:38:58;2.00;99.90
21104;DHT22;10710;53.398;-1.514;2022-12-18T09:44:15;1.90;99.90
21104;DHT22;10710;53.398;-1.514;2022-12-18T09:46:50;1.90;99.90
21104;DHT22;10710;53.398;-1.514;2022-12-18T09:49:20;1.90;99.90
21104;DHT22;10710;53.398;-1.514;2022-12-18T09:51:55;2.00;99.90
21104;DHT22;10710;53.398;-1.514;2022-12-18T09:54:26;1.90;99.90
21104;DHT22;10710;53.398;-1.514;2022-12-18T09:56:55;2.00;99.90
21104;DHT22;10710;53.398;-1.514;2022-12-18T09:59:25;2.10;99.90
21104;DHT22;10710;53.398;-1.514;2022-12-18T10:01:52;2.20;99.90
21104;DHT22;10710;53.398;-1.514;2022-12-18T10:04:21;2.30;99.90
21104;DHT22;10710;53.398;-1.514;2022-12-18T10:07:03;2.40;99.90
21104;DHT22;10710;53.398;-1.514;2022-12-18T10:10:04;2.40;99.90
21104;DHT22;10710;53.398;-1.514;2022-12-18T10:13:29;2.50;99.90
21104;DHT22;10710;53.398;-1.514;2022-12-18T10:15:43;2.50;99.90
21104;DHT22;10710;53.398;-1.514;2022-12-18T10:21:09;2.60;99.90
21104;DHT22;10710;53.398;-1.514;2022-12-18T10:26:09;2.50;99.90
21104;DHT22;10710;53.398;-1.514;2022-12-18T10:28:40;2.50;99.90
21104;DHT22;10710;53.398;-1.514;2022-12-18T10:31:19;2.60;99.90
21104;DHT22;10710;53.398;-1.514;2022-12-18T10:33:45;2.40;99.90
21104;DHT22;10710;53.398;-1.514;2022-12-18T10:36:11;2.60;99.90
21104;DHT22;10710;53.398;-1.514;2022-12-18T10:38:37;2.50;99.90
21104;DHT22;10710;53.398;-1.514;2022-12-18T10:41:08;2.50;99.90
21104;DHT22;10710;53.398;-1.514;2022-12-18T10:44:23;2.50;99.90
21104;DHT22;10710;53.398;-1.514;2022-12-18T10:47:02;2.70;99.90
21104;DHT22;10710;53.398;-1.514;2022-12-18T10:49:33;2.70;99.90
21104;DHT22;10710;53.398;-1.514;2022-12-18T10:52:19;2.70;99.90
21104;DHT22;10710;53.398;-1.514;2022-12-18T10:54:52;2.80;99.90
21104;DHT22;10710;53.398;-1.514;2022-12-18T10:57:35;2.80;99.90
21104;DHT22;10710;53.398;-1.514;2022-12-18T11:00:33;2.70;99.90
21104;DHT22;10710;53.398;-1.514;2022-12-18T11:03:01;2.80;99.90
21104;DHT22;10710;53.398;-1.514;2022-12-18T11:05:30;2.90;99.90
21104;DHT22;10710;53.398;-1.514;2022-12-18T11:07:57;2.90;99.90
21104;DHT22;10710;53.398;-1.514;2022-12-18T11:10:35;2.90;99.90
21104;DHT22;10710;53.398;-1.514;2022-12-18T11:13:22;3.00;99.90
21104;DHT22;10710;53.398;-1.514;2022-12-18T11:15:49;2.90;99.90
21104;DHT22;10710;53.398;-1.514;2022-12-18T11:18:20;2.90;99.90
21104;DHT22;10710;53.398;-1.514;2022-12-18T11:20:56;2.90;99.90
21104;DHT22;10710;53.398;-1.514;2022-12-18T11:23:23;2.90;99.90
21104;DHT22;10710;53.398;-1.514;2022-12-18T11:25:58;3.00;99.90
21104;DHT22;10710;53.398;-1.514;2022-12-18T11:28:45;3.10;99.90
21104;DHT22;10710;53.398;-1.514;2022-12-18T11:31:26;3.20;99.90
21104;DHT22;10710;53.398;-1.514;2022-12-18T11:34:11;3.30;99.90
21104;DHT22;10710;53.398;-1.514;2022-12-18T11:36:44;3.40;99.90
21104;DHT22;10710;53.398;-1.514;2022-12-18T11:39:44;3.40;99.90
21104;DHT22;10710;53.398;-1.514;2022-12-18T11:50:21;3.50;99.90
21104;DHT22;10710;53.398;-1.514;2022-12-18T11:52:49;3.50;99.90
21104;DHT22;10710;53.398;-1.514;2022-12-18T11:55:37;3.50;99.90
21104;DHT22;10710;53.398;-1.514;2022-12-18T12:09:14;3.50;99.90
21104;DHT22;10710;53.398;-1.514;2022-12-18T12:14:46;3.60;99.90
21104;DHT22;10710;53.398;-1.514;2022-12-18T12:23:06;3.70;99.90
21104;DHT22;10710;53.398;-1.514;2022-12-18T12:25:47;3.50;99.90
21104;DHT22;10710;53.398;-1.514;2022-12-18T12:31:37;3.40;99.90
21104;DHT22;10710;53.398;-1.514;2022-12-18T12:34:25;3.50;99.90
21104;DHT22;10710;53.398;-1.514;2022-12-18T12:39:42;3.60;99.90
21104;DHT22;10710;53.398;-1.514;2022-12-18T12:42:29;3.60;99.90
21104;DHT22;10710;53.398;-1.514;2022-12-18T12:45:34;3.60;99.90
21104;DHT22;10710;53.398;-1.514;2022-12-18T12:48:03;3.70;99.90
21104;DHT22;10710;53.398;-1.514;2022-12-18T12:50:34;3.70;99.90
21104;DHT22;10710;53.398;-1.514;2022-12-18T12:53:06;3.70;99.90
21104;DHT22;10710;53.398;-1.514;2022-12-18T12:55:33;3.70;99.90
21104;DHT22;10710;53.398;-1.514;2022-12-18T13:03:41;3.70;99.90
21104;DHT22;10710;53.398;-1.514;2022-12-18T13:09:02;3.80;99.90
21104;DHT22;10710;53.398;-1.514;2022-12-18T13:11:41;3.90;99.90
21104;DHT22;10710;53.398;-1.514;2022-12-18T13:14:37;3.80;99.90
21104;DHT22;10710;53.398;-1.514;2022-12-18T13:17:30;3.80;99.90
21104;DHT22;10710;53.398;-1.514;2022-12-18T13:20:08;3.80;99.90
21104;DHT22;10710;53.398;-1.514;2022-12-18T13:25:37;3.70;99.90
21104;DHT22;10710;53.398;-1.514;2022-12-18T13:28:13;3.70;99.90
21104;DHT22;10710;53.398;-1.514;2022-12-18T13:30:43;3.70;99.90
21104;DHT22;10710;53.398;-1.514;2022-12-18T13:38:39;3.80;99.90
21104;DHT22;10710;53.398;-1.514;2022-12-18T13:43:46;3.70;99.90
21104;DHT22;10710;53.398;-1.514;2022-12-18T13:46:27;3.80;99.90
21104;DHT22;10710;53.398;-1.514;2022-12-18T13:49:04;3.70;99.90
21104;DHT22;10710;53.398;-1.514;2022-12-18T13:51:33;3.80;99.90
21104;DHT22;10710;53.398;-1.514;2022-12-18T13:56:47;3.80;99.90
21104;DHT22;10710;53.398;-1.514;2022-12-18T14:01:53;3.70;99.90
21104;DHT22;10710;53.398;-1.514;2022-12-18T14:04:29;3.70;99.90
21104;DHT22;10710;53.398;-1.514;2022-12-18T14:06:58;3.60;99.90
21104;DHT22;10710;53.398;-1.514;2022-12-18T14:09:40;3.70;99.90
21104;DHT22;10710;53.398;-1.514;2022-12-18T14:12:24;3.70;99.90
21104;DHT22;10710;53.398;-1.514;2022-12-18T14:15:32;3.70;99.90
21104;DHT22;10710;53.398;-1.514;2022-12-18T14:20:52;3.70;99.90
21104;DHT22;10710;53.398;-1.514;2022-12-18T14:23:41;3.60;99.90
21104;DHT22;10710;53.398;-1.514;2022-12-18T14:26:23;3.60;99.90
21104;DHT22;10710;53.398;-1.514;2022-12-18T14:28:51;3.60;99.90
21104;DHT22;10710;53.398;-1.514;2022-12-18T14:31:20;3.50;99.90
21104;DHT22;10710;53.398;-1.514;2022-12-18T14:33:47;3.50;99.90
21104;DHT22;10710;53.398;-1.514;2022-12-18T14:36:18;3.50;99.90
21104;DHT22;10710;53.398;-1.514;2022-12-18T14:38:52;3.50;99.90
21104;DHT22;10710;53.398;-1.514;2022-12-18T14:41:20;3.50;99.90
21104;DHT22;10710;53.398;-1.514;2022-12-18T14:43:49;3.40;99.90
21104;DHT22;10710;53.398;-1.514;2022-12-18T14:46:37;3.40;99.90
21104;DHT22;10710;53.398;-1.514;2022-12-18T14:49:29;3.50;99.90
21104;DHT22;10710;53.398;-1.514;2022-12-18T14:52:13;3.50;99.90
21104;DHT22;10710;53.398;-1.514;2022-12-18T14:54:46;3.50;99.90
21104;DHT22;10710;53.398;-1.514;2022-12-18T14:57:23;3.60;99.90
21104;DHT22;10710;53.398;-1.514;2022-12-18T14:59:50;3.50;99.90
21104;DHT22;10710;53.398;-1.514;2022-12-18T15:02:23;3.40;99.90
21104;DHT22;10710;53.398;-1.514;2022-12-18T15:05:00;3.50;99.90
21104;DHT22;10710;53.398;-1.514;2022-12-18T15:07:34;3.50;99.90
21104;DHT22;10710;53.398;-1.514;2022-12-18T15:10:12;3.50;99.90
21104;DHT22;10710;53.398;-1.514;2022-12-18T15:20:45;3.50;99.90
21104;DHT22;10710;53.398;-1.514;2022-12-18T15:23:20;3.50;99.90
21104;DHT22;10710;53.398;-1.514;2022-12-18T15:25:54;3.60;99.90
21104;DHT22;10710;53.398;-1.514;2022-12-18T15:31:17;3.60;99.90
21104;DHT22;10710;53.398;-1.514;2022-12-18T15:36:45;3.50;99.90
21104;DHT22;10710;53.398;-1.514;2022-12-18T15:39:14;3.40;99.90
21104;DHT22;10710;53.398;-1.514;2022-12-18T15:41:45;3.40;99.90
21104;DHT22;10710;53.398;-1.514;2022-12-18T15:44:31;3.40;99.90
21104;DHT22;10710;53.398;-1.514;2022-12-18T15:47:11;3.40;99.90
21104;DHT22;10710;53.398;-1.514;2022-12-18T15:49:57;3.40;99.90
21104;DHT22;10710;53.398;-1.514;2022-12-18T15:52:29;3.40;99.90
21104;DHT22;10710;53.398;-1.514;2022-12-18T15:54:57;3.50;99.90
21104;DHT22;10710;53.398;-1.514;2022-12-18T15:57:42;3.50;99.90
21104;DHT22;10710;53.398;-1.514;2022-12-18T16:00:12;3.50;99.90
21104;DHT22;10710;53.398;-1.514;2022-12-18T16:02:45;3.50;99.90
21104;DHT22;10710;53.398;-1.514;2022-12-18T16:05:37;3.60;99.90
21104;DHT22;10710;53.398;-1.514;2022-12-18T16:08:18;3.60;99.90
21104;DHT22;10710;53.398;-1.514;2022-12-18T16:11:26;3.50;99.90
21104;DHT22;10710;53.398;-1.514;2022-12-18T16:14:48;3.50;99.90
21104;DHT22;10710;53.398;-1.514;2022-12-18T16:17:46;3.50;99.90
21104;DHT22;10710;53.398;-1.514;2022-12-18T16:20:35;3.60;99.90
21104;DHT22;10710;53.398;-1.514;2022-12-18T16:23:02;3.60;99.90
21104;DHT22;10710;53.398;-1.514;2022-12-18T16:26:02;3.60;99.90
21104;DHT22;10710;53.398;-1.514;2022-12-18T16:28:55;3.70;99.90
21104;DHT22;10710;53.398;-1.514;2022-12-18T16:31:21;3.70;99.90
21104;DHT22;10710;53.398;-1.514;2022-12-18T16:33:49;3.60;99.90
21104;DHT22;10710;53.398;-1.514;2022-12-18T16:36:14;3.60;99.90
21104;DHT22;10710;53.398;-1.514;2022-12-18T16:38:40;3.60;99.90
21104;DHT22;10710;53.398;-1.514;2022-12-18T16:41:20;3.60;99.90
21104;DHT22;10710;53.398;-1.514;2022-12-18T16:43:59;3.70;99.90
21104;DHT22;10710;53.398;-1.514;2022-12-18T16:46:25;3.60;99.90
21104;DHT22;10710;53.398;-1.514;2022-12-18T16:48:51;3.70;99.90
21104;DHT22;10710;53.398;-1.514;2022-12-18T16:51:20;3.70;99.90
21104;DHT22;10710;53.398;-1.514;2022-12-18T16:53:46;3.70;99.90
21104;DHT22;10710;53.398;-1.514;2022-12-18T16:56:14;3.70;99.90
21104;DHT22;10710;53.398;-1.514;2022-12-18T16:58:40;3.70;99.90
21104;DHT22;10710;53.398;-1.514;2022-12-18T17:01:08;3.70;99.90
21104;DHT22;10710;53.398;-1.514;2022-12-18T17:03:34;3.70;99.90
21104;DHT22;10710;53.398;-1.514;2022-12-18T17:06:04;3.70;99.90
21104;DHT22;10710;53.398;-1.514;2022-12-18T17:08:30;3.80;99.90
21104;DHT22;10710;53.398;-1.514;2022-12-18T17:11:04;3.80;99.90
21104;DHT22;10710;53.398;-1.514;2022-12-18T17:13:31;3.80;99.90
21104;DHT22;10710;53.398;-1.514;2022-12-18T17:16:02;3.90;99.90
21104;DHT22;10710;53.398;-1.514;2022-12-18T17:18:29;3.90;99.90
21104;DHT22;10710;53.398;-1.514;2022-12-18T17:21:03;3.90;99.90
21104;DHT22;10710;53.398;-1.514;2022-12-18T17:23:30;3.80;99.90
21104;DHT22;10710;53.398;-1.514;2022-12-18T17:25:58;3.80;99.90
21104;DHT22;10710;53.398;-1.514;2022-12-18T17:28:27;3.80;99.90
21104;DHT22;10710;53.398;-1.514;2022-12-18T17:30:54;4.00;99.90
21104;DHT22;10710;53.398;-1.514;2022-12-18T17:33:20;3.90;99.90
21104;DHT22;10710;53.398;-1.514;2022-12-18T17:35:47;4.00;99.90
21104;DHT22;10710;53.398;-1.514;2022-12-18T17:38:13;4.00;99.90
21104;DHT22;10710;53.398;-1.514;2022-12-18T17:40:39;3.90;99.90
21104;DHT22;10710;53.398;-1.514;2022-12-18T17:43:07;4.00;99.90
21104;DHT22;10710;53.398;-1.514;2022-12-18T17:45:39;4.00;99.90
21104;DHT22;10710;53.398;-1.514;2022-12-18T17:48:12;4.00;99.90
21104;DHT22;10710;53.398;-1.514;2022-12-18T17:50:45;4.00;99.90
21104;DHT22;10710;53.398;-1.514;2022-12-18T17:53:14;4.00;99.90
21104;DHT22;10710;53.398;-1.514;2022-12-18T17:55:40;4.10;99.90
21104;DHT22;10710;53.398;-1.514;2022-12-18T17:58:10;4.20;99.90